Time;durP1;ratioP1;P1;durP2;ratioP2;P2;SDS_P1;SDS_P2;PMS_P1;PMS_P2;Temp;Humidity;BMP_temperature;BMP_pressure;BME280_temperature;BME280_humidity;BME280_pressure;Samples;Min_cycle;Max_cycle;Signal;HPM_P1;HPM_P2
2022/05/07 00:00:48;;;;;;;3.17;2.88;;;;;;;;;;4935641;29;20039;-78
2022/05/07 00:03:14;;;;;;;7.53;2.83;;;;;;;;;;4951488;29;20471;-78
2022/05/07 00:05:39;;;;;;;4.10;2.90;;;;;;;;;;4921580;29;20096;-78
2022/05/07 00:08:05;;;;;;;3.78;2.92;;;;;;;;;;4937307;29;20032;-78
2022/05/07 00:10:31;;;;;;;4.00;3.28;;;;;;;;;;4937452;29;20031;-78
2022/05/07 00:12:56;;;;;;;3.80;2.53;;;;;;;;;;4905841;29;20066;-78
2022/05/07 00:15:23;;;;;;;2.95;2.53;;;;;;;;;;4937275;29;20177;-78
2022/05/07 00:18:10;;;;;;;3.97;3.10;;;;;;;;;;4937533;29;20031;-77
2022/05/07 00:20:36;;;;;;;3.25;2.80;;;;;;;;;;4954550;29;20047;-78
2022/05/07 00:23:02;;;;;;;3.78;3.10;;;;;;;;;;4954584;29;20027;-78
2022/05/07 00:25:28;;;;;;;3.45;2.83;;;;;;;;;;4936557;29;20031;-78
2022/05/07 00:27:54;;;;;;;3.60;2.88;;;;;;;;;;4952859;29;20035;-77
2022/05/07 00:30:20;;;;;;;4.78;2.70;;;;;;;;;;4937245;29;20085;-78
2022/05/07 00:32:45;;;;;;;3.83;2.67;;;;;;;;;;4905522;29;20031;-77
2022/05/07 00:35:11;;;;;;;5.38;3.00;;;;;;;;;;4937286;29;20038;-77
2022/05/07 00:37:37;;;;;;;3.85;3.00;;;;;;;;;;4954303;29;20436;-77
2022/05/07 00:40:03;;;;;;;6.68;3.20;;;;;;;;;;4954460;29;20039;-77
2022/05/07 00:42:29;;;;;;;5.10;2.88;;;;;;;;;;4936705;29;20031;-77
2022/05/07 00:44:54;;;;;;;3.38;2.80;;;;;;;;;;4952576;29;20042;-77
2022/05/07 00:47:28;;;;;;;3.50;2.85;;;;;;;;;;4952672;29;20065;-77
2022/05/07 00:51:33;;;;;;;;;;;;;;;;;;4937031;29;20486;-78
2022/05/07 00:52:41;;;;;;;3.63;2.70;;;;;;;;;;4939440;29;20365;-77
2022/05/07 00:55:07;;;;;;;4.03;2.47;;;;;;;;;;4936576;29;20398;-77
2022/05/07 00:57:32;;;;;;;4.82;2.80;;;;;;;;;;4936807;29;20043;-78
2022/05/07 00:59:57;;;;;;;3.50;2.88;;;;;;;;;;4936657;29;20098;-77
2022/05/07 01:02:23;;;;;;;3.20;2.90;;;;;;;;;;4927958;29;20051;-78
2022/05/07 01:04:48;;;;;;;3.97;2.80;;;;;;;;;;4952628;28;20066;-78
2022/05/07 01:07:14;;;;;;;3.33;2.85;;;;;;;;;;4953712;29;20106;-78
2022/05/07 01:09:39;;;;;;;3.65;3.05;;;;;;;;;;4952744;29;20035;-78
2022/05/07 01:12:05;;;;;;;4.38;3.03;;;;;;;;;;4952785;29;20130;-77
2022/05/07 01:14:30;;;;;;;5.47;2.97;;;;;;;;;;4936888;29;20083;-77
2022/05/07 01:16:56;;;;;;;7.57;3.20;;;;;;;;;;4952258;29;20374;-77
2022/05/07 01:19:21;;;;;;;4.57;3.20;;;;;;;;;;4954129;29;20114;-77
2022/05/07 01:21:46;;;;;;;4.55;3.17;;;;;;;;;;4936475;29;20078;-77
2022/05/07 01:24:12;;;;;;;4.88;2.90;;;;;;;;;;4952064;29;20062;-77
2022/05/07 01:26:37;;;;;;;3.85;3.10;;;;;;;;;;4936179;29;20050;-77
2022/05/07 01:29:07;;;;;;;3.97;2.95;;;;;;;;;;4953769;29;20027;-77
2022/05/07 01:31:32;;;;;;;4.78;3.08;;;;;;;;;;4952080;29;20056;-77
2022/05/07 01:33:58;;;;;;;4.35;3.38;;;;;;;;;;4953567;29;20129;-77
2022/05/07 01:36:23;;;;;;;5.60;3.28;;;;;;;;;;4951448;28;20073;-77
2022/05/07 01:38:48;;;;;;;3.42;3.08;;;;;;;;;;4951734;29;20028;-78
2022/05/07 01:41:14;;;;;;;6.82;3.47;;;;;;;;;;4935856;29;20034;-78
2022/05/07 01:43:40;;;;;;;4.13;3.22;;;;;;;;;;4951808;29;20519;-77
2022/05/07 01:48:09;;;;;;;4.00;3.03;;;;;;;;;;4936015;29;20036;-77
2022/05/07 01:48:53;;;;;;;6.30;3.08;;;;;;;;;;4952116;29;20031;-76
2022/05/07 01:51:19;;;;;;;6.70;3.83;;;;;;;;;;4951692;29;20097;-77
2022/05/07 01:53:44;;;;;;;5.82;3.22;;;;;;;;;;4935889;29;20083;-77
2022/05/07 01:56:10;;;;;;;5.05;3.28;;;;;;;;;;4951437;29;20363;-78
2022/05/07 01:58:35;;;;;;;3.47;3.10;;;;;;;;;;4936091;29;20067;-77
2022/05/07 02:01:00;;;;;;;4.20;3.20;;;;;;;;;;4951542;29;20120;-78
2022/05/07 02:03:26;;;;;;;4.70;3.53;;;;;;;;;;4935322;29;20082;-78
2022/05/07 02:05:51;;;;;;;7.75;3.13;;;;;;;;;;4952841;28;20031;-77
2022/05/07 02:08:17;;;;;;;5.15;3.63;;;;;;;;;;4935279;29;20110;-77
2022/05/07 02:10:42;;;;;;;4.88;3.20;;;;;;;;;;4967232;28;20039;-77
2022/05/07 02:13:07;;;;;;;3.75;3.28;;;;;;;;;;4951444;29;20042;-77
2022/05/07 02:15:33;;;;;;;5.80;3.22;;;;;;;;;;4935322;29;20130;-77
2022/05/07 02:17:58;;;;;;;5.85;3.38;;;;;;;;;;4953222;29;20061;-77
2022/05/07 02:20:24;;;;;;;3.60;2.80;;;;;;;;;;4951162;29;20031;-77
2022/05/07 02:22:53;;;;;;;10.13;3.80;;;;;;;;;;4951500;28;20462;-77
2022/05/07 02:25:18;;;;;;;3.90;3.33;;;;;;;;;;4967301;28;20118;-77
2022/05/07 02:27:43;;;;;;;3.85;3.22;;;;;;;;;;4952656;29;20485;-78
2022/05/07 02:30:09;;;;;;;4.30;3.30;;;;;;;;;;4951394;29;20027;-78
2022/05/07 02:32:35;;;;;;;4.07;3.33;;;;;;;;;;4951497;29;20035;-77
2022/05/07 02:35:00;;;;;;;4.57;3.53;;;;;;;;;;4935498;29;20458;-77
2022/05/07 02:37:25;;;;;;;4.55;3.35;;;;;;;;;;4967603;28;20094;-77
2022/05/07 02:39:51;;;;;;;3.88;3.38;;;;;;;;;;4952699;29;20358;-77
2022/05/07 02:45:01;;;;;;;4.43;3.25;;;;;;;;;;4952825;29;20038;-77
2022/05/07 02:47:28;;;;;;;4.00;3.20;;;;;;;;;;4951400;29;20039;-77
2022/05/07 02:49:53;;;;;;;5.43;3.20;;;;;;;;;;4954578;28;20099;-77
2022/05/07 02:52:18;;;;;;;4.90;3.65;;;;;;;;;;4956276;29;20039;-77
2022/05/07 02:54:44;;;;;;;5.22;3.22;;;;;;;;;;4956596;29;20446;-78
2022/05/07 02:57:09;;;;;;;4.72;3.33;;;;;;;;;;4971025;28;20041;-77
2022/05/07 02:59:38;;;;;;;4.03;3.03;;;;;;;;;;4939129;29;20035;-77
2022/05/07 03:02:04;;;;;;;3.72;3.28;;;;;;;;;;4936034;29;20060;-78
2022/05/07 03:04:29;;;;;;;3.42;2.97;;;;;;;;;;4919981;29;20545;-78
2022/05/07 03:06:54;;;;;;;3.83;2.92;;;;;;;;;;4936956;29;20028;-77
2022/05/07 03:09:20;;;;;;;4.28;3.40;;;;;;;;;;4920083;29;20114;-77
2022/05/07 03:11:45;;;;;;;7.72;3.50;;;;;;;;;;4904465;29;20027;-77
2022/05/07 03:14:11;;;;;;;5.90;3.47;;;;;;;;;;4919735;29;20074;-77
2022/05/07 03:16:38;;;;;;;4.65;3.20;;;;;;;;;;4920244;29;20118;-77
2022/05/07 03:19:04;;;;;;;4.25;3.38;;;;;;;;;;4919799;29;20086;-77
2022/05/07 03:21:30;;;;;;;4.68;3.28;;;;;;;;;;4903821;29;20475;-77
2022/05/07 03:23:55;;;;;;;4.47;3.35;;;;;;;;;;4919312;29;20043;-77
2022/05/07 03:26:22;;;;;;;5.35;3.53;;;;;;;;;;4887833;29;20133;-77
2022/05/07 03:28:47;;;;;;;5.25;3.58;;;;;;;;;;4919573;29;20035;-77
2022/05/07 03:31:13;;;;;;;3.97;3.30;;;;;;;;;;4903519;29;20367;-77
2022/05/07 03:33:39;;;;;;;3.65;3.25;;;;;;;;;;4936370;29;20038;-77
2022/05/07 03:36:05;;;;;;;4.38;3.28;;;;;;;;;;4903286;29;20035;-77
2022/05/07 03:38:31;;;;;;;7.55;3.70;;;;;;;;;;4919209;29;20032;-77
2022/05/07 03:40:56;;;;;;;5.20;3.45;;;;;;;;;;4919019;29;20032;-78
2022/05/07 03:43:21;;;;;;;6.85;3.55;;;;;;;;;;4903654;29;20348;-77
2022/05/07 03:45:47;;;;;;;4.47;3.58;;;;;;;;;;4903085;29;20027;-77
2022/05/07 03:48:12;;;;;;;4.93;3.50;;;;;;;;;;4918809;29;20117;-77
2022/05/07 03:50:38;;;;;;;3.45;2.90;;;;;;;;;;4918890;29;20059;-76
2022/05/07 03:55:47;;;;;;;5.25;3.38;;;;;;;;;;4921328;29;20135;-77
2022/05/07 03:58:16;;;;;;;4.03;3.22;;;;;;;;;;4935810;29;20122;-78
2022/05/07 04:00:42;;;;;;;4.57;3.10;;;;;;;;;;4918356;29;20028;-78
2022/05/07 04:03:08;;;;;;;3.47;3.08;;;;;;;;;;4932412;29;20058;-77
2022/05/07 04:05:33;;;;;;;7.18;3.80;;;;;;;;;;4953180;28;20086;-77
2022/05/07 04:07:59;;;;;;;5.15;3.50;;;;;;;;;;4937669;29;20093;-78
2022/05/07 04:10:24;;;;;;;3.55;3.03;;;;;;;;;;4953874;29;20027;-77
2022/05/07 04:12:51;;;;;;;3.50;2.90;;;;;;;;;;4969848;28;20102;-77
2022/05/07 04:15:17;;;;;;;4.22;2.70;;;;;;;;;;4954036;29;20106;-78
2022/05/07 04:17:43;;;;;;;4.43;3.20;;;;;;;;;;4953687;29;20039;-78
2022/05/07 04:20:09;;;;;;;3.47;3.17;;;;;;;;;;4953238;29;20478;-78
2022/05/07 04:22:35;;;;;;;4.38;3.03;;;;;;;;;;4937770;29;20451;-77
2022/05/07 04:25:04;;;;;;;6.32;2.97;;;;;;;;;;4954708;29;20498;-77
2022/05/07 04:27:30;;;;;;;4.10;2.90;;;;;;;;;;4953246;29;20050;-77
2022/05/07 04:29:57;;;;;;;3.10;2.55;;;;;;;;;;4953374;29;20387;-77
2022/05/07 04:32:22;;;;;;;4.57;3.13;;;;;;;;;;4955360;29;20035;-77
2022/05/07 04:34:48;;;;;;;3.80;2.65;;;;;;;;;;4955747;29;20037;-77
2022/05/07 04:37:13;;;;;;;2.80;2.53;;;;;;;;;;4954266;28;20031;-77
2022/05/07 04:39:38;;;;;;;3.78;2.63;;;;;;;;;;4954501;29;20130;-76
2022/05/07 04:42:04;;;;;;;3.20;2.65;;;;;;;;;;4938386;29;20042;-76
2022/05/07 04:44:29;;;;;;;3.42;2.60;;;;;;;;;;4955576;29;20031;-76
2022/05/07 04:46:55;;;;;;;2.85;2.50;;;;;;;;;;4954133;29;20058;-76
2022/05/07 04:49:21;;;;;;;3.35;2.92;;;;;;;;;;4954179;29;20074;-77
2022/05/07 04:51:50;;;;;;;4.55;2.80;;;;;;;;;;4954122;29;20105;-76
2022/05/07 04:54:20;;;;;;;3.17;2.50;;;;;;;;;;4955279;29;20049;-76
2022/05/07 04:56:49;;;;;;;3.13;2.60;;;;;;;;;;4955551;29;20512;-76
2022/05/07 04:59:15;;;;;;;3.65;2.60;;;;;;;;;;4938380;29;20109;-76
2022/05/07 05:01:41;;;;;;;3.00;2.45;;;;;;;;;;4951991;29;20482;-76
2022/05/07 05:04:06;;;;;;;3.95;2.92;;;;;;;;;;4938047;29;20058;-76
2022/05/07 05:06:32;;;;;;;2.85;2.50;;;;;;;;;;4938424;29;20117;-76
2022/05/07 05:08:57;;;;;;;2.90;2.60;;;;;;;;;;4954374;29;20470;-76
2022/05/07 05:11:23;;;;;;;4.35;2.65;;;;;;;;;;4923206;29;20034;-76
2022/05/07 05:13:49;;;;;;;4.25;2.40;;;;;;;;;;4955945;29;20031;-76
2022/05/07 05:16:14;;;;;;;6.60;2.70;;;;;;;;;;4954427;29;20118;-76
2022/05/07 05:18:40;;;;;;;6.93;2.53;;;;;;;;;;4938538;29;20031;-76
2022/05/07 05:21:06;;;;;;;5.50;2.20;;;;;;;;;;4938495;29;20082;-76
2022/05/07 05:23:31;;;;;;;4.00;2.45;;;;;;;;;;4939230;29;20031;-75
2022/05/07 05:25:57;;;;;;;2.97;2.45;;;;;;;;;;4938468;29;20059;-75
2022/05/07 05:28:22;;;;;;;4.15;2.60;;;;;;;;;;4938527;29;20035;-75
2022/05/07 05:30:51;;;;;;;3.75;2.17;;;;;;;;;;4923065;29;20031;-75
2022/05/07 05:33:20;;;;;;;4.07;2.70;;;;;;;;;;4926268;29;20027;-75
2022/05/07 05:35:46;;;;;;;3.63;2.58;;;;;;;;;;4907793;29;20054;-76
2022/05/07 05:38:11;;;;;;;3.38;2.30;;;;;;;;;;4923068;29;20031;-76
2022/05/07 05:40:37;;;;;;;2.83;2.40;;;;;;;;;;4938274;29;20031;-78
2022/05/07 05:43:02;;;;;;;2.80;2.53;;;;;;;;;;4937103;29;20475;-78
2022/05/07 05:45:27;;;;;;;4.68;3.08;;;;;;;;;;4953055;29;20036;-79
2022/05/07 05:47:54;;;;;;;6.30;2.80;;;;;;;;;;4937284;29;20035;-79
2022/05/07 05:50:19;;;;;;;2.92;2.50;;;;;;;;;;4936678;29;20038;-77
2022/05/07 05:52:45;;;;;;;4.93;2.80;;;;;;;;;;4936597;29;20186;-80
2022/05/07 05:55:10;;;;;;;5.68;2.75;;;;;;;;;;4936507;29;20129;-79
2022/05/07 05:57:36;;;;;;;6.30;3.13;;;;;;;;;;4936270;29;20053;-78
2022/05/07 06:00:02;;;;;;;5.88;3.35;;;;;;;;;;4953905;29;20070;-78
2022/05/07 06:02:28;;;;;;;7.38;3.50;;;;;;;;;;4944537;29;20193;-78
2022/05/07 06:04:55;;;;;;;6.47;3.28;;;;;;;;;;4921553;28;20086;-78
2022/05/07 06:07:21;;;;;;;16.65;4.50;;;;;;;;;;4952801;28;20402;-78
2022/05/07 06:09:47;;;;;;;15.63;4.72;;;;;;;;;;4937312;29;20082;-78
2022/05/07 06:12:12;;;;;;;13.23;4.82;;;;;;;;;;4936699;29;20039;-79
2022/05/07 06:14:38;;;;;;;16.52;4.97;;;;;;;;;;4936755;29;20031;-79
2022/05/07 06:17:03;;;;;;;13.77;4.85;;;;;;;;;;4954464;29;20039;-80
2022/05/07 06:19:30;;;;;;;19.63;5.28;;;;;;;;;;4957025;28;20130;-83
2022/05/07 06:21:56;;;;;;;9.88;4.28;;;;;;;;;;4922581;29;20039;-82
2022/05/07 06:29:49;;;;;;;;;;;;;;;;;;4945536;29;20066;-84
2022/05/07 06:32:15;;;;;;;9.70;3.53;;;;;;;;;;4960023;29;20218;-86
2022/05/07 06:34:40;;;;;;;9.27;3.20;;;;;;;;;;4977029;28;20023;-81
2022/05/07 06:37:05;;;;;;;10.85;3.42;;;;;;;;;;4943348;29;20115;-81
2022/05/07 06:39:31;;;;;;;14.02;3.22;;;;;;;;;;4962379;29;20375;-81
2022/05/07 06:41:57;;;;;;;9.25;3.22;;;;;;;;;;4944903;29;20035;-80
2022/05/07 06:44:23;;;;;;;7.90;3.70;;;;;;;;;;4944167;29;20039;-80
2022/05/07 06:46:49;;;;;;;8.90;3.42;;;;;;;;;;4959086;29;20027;-80
2022/05/07 06:49:17;;;;;;;5.65;3.25;;;;;;;;;;4943559;29;20035;-80
2022/05/07 06:51:43;;;;;;;7.93;3.40;;;;;;;;;;4958269;29;20029;-80
2022/05/07 06:54:08;;;;;;;6.28;3.22;;;;;;;;;;4942076;29;20534;-79
2022/05/07 06:56:34;;;;;;;5.82;3.47;;;;;;;;;;4942374;29;20086;-80
2022/05/07 06:59:00;;;;;;;7.30;3.28;;;;;;;;;;4958008;28;20435;-80
2022/05/07 07:01:25;;;;;;;8.68;3.38;;;;;;;;;;4942502;29;20043;-81
2022/05/07 07:03:50;;;;;;;20.90;4.35;;;;;;;;;;4958347;29;20083;-77
2022/05/07 07:06:16;;;;;;;7.90;3.30;;;;;;;;;;4958549;28;20054;-82
2022/05/07 07:08:42;;;;;;;5.45;3.10;;;;;;;;;;4942958;29;20039;-81
2022/05/07 07:11:07;;;;;;;11.13;3.50;;;;;;;;;;4974084;28;20035;-81
2022/05/07 07:13:32;;;;;;;7.20;3.38;;;;;;;;;;4958392;29;20078;-83
2022/05/07 07:15:58;;;;;;;6.60;3.67;;;;;;;;;;4958474;29;20404;-82
2022/05/07 07:18:23;;;;;;;5.50;3.40;;;;;;;;;;4955810;29;20046;-82
2022/05/07 07:20:49;;;;;;;9.15;3.47;;;;;;;;;;4956843;29;20035;-82
2022/05/07 07:23:15;;;;;;;8.98;3.42;;;;;;;;;;4956944;29;20113;-81
2022/05/07 07:25:41;;;;;;;7.13;3.30;;;;;;;;;;4956097;29;20114;-81
2022/05/07 07:28:08;;;;;;;9.18;3.58;;;;;;;;;;4956300;29;20082;-81
2022/05/07 07:30:34;;;;;;;5.38;3.58;;;;;;;;;;4939471;29;20098;-82
2022/05/07 07:33:00;;;;;;;7.82;3.47;;;;;;;;;;4955026;28;20458;-82
2022/05/07 07:35:26;;;;;;;11.05;3.60;;;;;;;;;;4955402;28;20078;-82
2022/05/07 07:37:51;;;;;;;10.38;3.78;;;;;;;;;;4923183;29;20063;-83
2022/05/07 07:40:17;;;;;;;10.52;3.63;;;;;;;;;;4954764;29;20027;-80
2022/05/07 07:42:42;;;;;;;9.35;3.72;;;;;;;;;;4938981;29;20089;-80
2022/05/07 07:48:02;;;;;;;12.68;3.83;;;;;;;;;;4937987;28;20126;-82
2022/05/07 07:50:32;;;;;;;9.25;3.30;;;;;;;;;;4955877;28;20429;-82
2022/05/07 07:53:00;;;;;;;12.48;3.60;;;;;;;;;;4939580;29;20031;-83
2022/05/07 07:55:25;;;;;;;9.45;3.45;;;;;;;;;;4954818;29;20082;-80
2022/05/07 07:57:55;;;;;;;7.97;3.42;;;;;;;;;;4955843;29;20031;-81
2022/05/07 08:00:21;;;;;;;11.95;3.90;;;;;;;;;;4954749;29;20114;-80
2022/05/07 08:02:55;;;;;;;8.30;3.30;;;;;;;;;;4954272;29;20051;-81
2022/05/07 08:05:28;;;;;;;8.70;3.88;;;;;;;;;;4954650;28;20127;-81
2022/05/07 08:13:22;;;;;;;8.63;3.33;;;;;;;;;;4955150;29;20085;-82
2022/05/07 08:15:48;;;;;;;8.85;3.30;;;;;;;;;;4955149;28;20031;-83
2022/05/07 08:18:14;;;;;;;8.18;3.22;;;;;;;;;;4938654;29;20035;-85
2022/05/07 08:20:43;;;;;;;8.40;3.50;;;;;;;;;;4954180;29;20050;-84
2022/05/07 08:23:10;;;;;;;7.68;3.08;;;;;;;;;;4954832;29;20439;-83
2022/05/07 08:25:35;;;;;;;6.20;3.30;;;;;;;;;;4955253;29;20035;-83
2022/05/07 08:28:01;;;;;;;8.55;3.70;;;;;;;;;;4954196;29;20037;-83
2022/05/07 08:30:26;;;;;;;6.38;3.13;;;;;;;;;;4922559;29;20027;-84
2022/05/07 08:32:52;;;;;;;12.07;4.13;;;;;;;;;;4956627;29;20106;-84
2022/05/07 08:35:18;;;;;;;12.25;3.45;;;;;;;;;;4938896;29;20035;-84
2022/05/07 08:37:44;;;;;;;7.57;3.78;;;;;;;;;;4954331;29;20035;-83
2022/05/07 08:40:13;;;;;;;8.27;4.10;;;;;;;;;;4953804;29;20039;-83
2022/05/07 08:42:39;;;;;;;11.07;3.83;;;;;;;;;;4939090;29;20034;-83
2022/05/07 08:45:05;;;;;;;9.40;3.92;;;;;;;;;;4955395;29;20043;-83
2022/05/07 08:47:31;;;;;;;7.00;3.63;;;;;;;;;;4953795;28;20035;-82
2022/05/07 08:49:57;;;;;;;11.73;3.97;;;;;;;;;;4955154;29;20042;-83
2022/05/07 08:52:23;;;;;;;5.72;3.08;;;;;;;;;;4954304;29;20043;-83
2022/05/07 08:54:48;;;;;;;7.53;3.85;;;;;;;;;;4953714;29;20102;-84
2022/05/07 08:57:15;;;;;;;10.50;3.85;;;;;;;;;;4953984;29;20382;-84
2022/05/07 08:59:41;;;;;;;9.05;3.50;;;;;;;;;;4953761;29;20477;-83
2022/05/07 09:02:06;;;;;;;7.28;3.50;;;;;;;;;;4954944;28;20125;-83
2022/05/07 09:04:32;;;;;;;5.78;3.33;;;;;;;;;;4954732;29;20443;-83
2022/05/07 09:06:58;;;;;;;10.13;4.05;;;;;;;;;;4956859;29;20134;-84
2022/05/07 09:09:23;;;;;;;6.93;3.65;;;;;;;;;;4940700;29;20037;-82
2022/05/07 09:11:49;;;;;;;7.35;3.65;;;;;;;;;;4962617;29;20035;-84
2022/05/07 09:14:18;;;;;;;6.97;3.15;;;;;;;;;;4958594;29;20027;-84
2022/05/07 09:16:48;;;;;;;4.35;3.08;;;;;;;;;;4941695;29;20050;-83
2022/05/07 09:19:41;;;;;;;12.20;3.60;;;;;;;;;;4957035;29;20157;-83
2022/05/07 09:22:11;;;;;;;7.45;3.60;;;;;;;;;;4954050;29;20123;-83
2022/05/07 09:24:40;;;;;;;7.72;3.58;;;;;;;;;;4959361;29;20056;-83
2022/05/07 09:27:06;;;;;;;5.13;3.28;;;;;;;;;;4956691;28;20501;-82
2022/05/07 09:29:32;;;;;;;4.45;3.03;;;;;;;;;;4956057;29;20024;-81
2022/05/07 09:32:09;;;;;;;5.80;3.20;;;;;;;;;;4971805;28;20114;-83
2022/05/07 09:37:36;;;;;;;7.50;3.50;;;;;;;;;;4958019;29;20117;-80
2022/05/07 09:40:04;;;;;;;5.70;4.20;;;;;;;;;;4940003;29;20027;-82
2022/05/07 09:42:30;;;;;;;6.68;3.45;;;;;;;;;;4956578;29;20174;-82
2022/05/07 09:44:56;;;;;;;6.65;3.25;;;;;;;;;;4939783;29;20035;-82
2022/05/07 09:47:22;;;;;;;5.75;3.35;;;;;;;;;;4956446;29;20042;-82
2022/05/07 09:52:32;;;;;;;5.90;3.05;;;;;;;;;;4956549;29;20078;-84
2022/05/07 09:57:42;;;;;;;;;;;;;;;;;;4956252;28;20081;-83
2022/05/07 10:00:11;;;;;;;5.63;2.60;;;;;;;;;;4957289;29;19918;-82
2022/05/07 10:02:54;;;;;;;7.13;3.10;;;;;;;;;;4924931;29;20079;-83
2022/05/07 10:05:51;;;;;;;4.87;2.60;;;;;;;;;;4940049;29;20023;-82
2022/05/07 10:08:48;;;;;;;4.82;2.75;;;;;;;;;;4939334;29;20272;-82
2022/05/07 10:11:14;;;;;;;4.78;3.03;;;;;;;;;;4937875;29;20062;-83
2022/05/07 10:13:40;;;;;;;5.97;2.97;;;;;;;;;;4923981;29;20517;-83
2022/05/07 10:16:05;;;;;;;5.25;2.83;;;;;;;;;;4943630;29;20044;-81
2022/05/07 10:18:36;;;;;;;4.60;2.67;;;;;;;;;;4962482;29;20122;-83
2022/05/07 10:21:14;;;;;;;4.35;2.70;;;;;;;;;;4943708;29;20354;-83
2022/05/07 10:23:52;;;;;;;5.38;2.60;;;;;;;;;;4964268;29;20019;-84
2022/05/07 10:26:19;;;;;;;4.00;2.47;;;;;;;;;;4963807;29;20023;-84
2022/05/07 10:28:44;;;;;;;7.95;2.63;;;;;;;;;;4966443;29;20031;-83
2022/05/07 10:31:21;;;;;;;10.40;2.60;;;;;;;;;;4942886;29;20025;-84
2022/05/07 10:33:47;;;;;;;3.08;2.10;;;;;;;;;;4924033;29;20059;-82
2022/05/07 10:36:14;;;;;;;5.78;2.60;;;;;;;;;;4939661;29;20039;-81
2022/05/07 10:38:42;;;;;;;3.75;2.60;;;;;;;;;;4956970;29;20089;-82
2022/05/07 10:41:17;;;;;;;4.93;3.50;;;;;;;;;;4938140;29;20035;-81
2022/05/07 10:43:46;;;;;;;5.45;2.83;;;;;;;;;;4939694;29;20340;-81
2022/05/07 10:46:16;;;;;;;3.65;2.72;;;;;;;;;;4938869;29;20035;-80
2022/05/07 10:48:44;;;;;;;4.95;2.92;;;;;;;;;;4940054;29;20058;-81
2022/05/07 10:51:29;;;;;;;3.90;2.80;;;;;;;;;;4955943;29;20106;-82
2022/05/07 10:54:00;;;;;;;3.88;2.60;;;;;;;;;;4939325;29;20458;-82
2022/05/07 10:56:26;;;;;;;5.82;3.28;;;;;;;;;;4955875;29;20037;-81
2022/05/07 10:58:54;;;;;;;9.38;3.35;;;;;;;;;;4938336;29;20126;-81
2022/05/07 11:01:21;;;;;;;6.93;3.38;;;;;;;;;;4938387;29;20117;-81
2022/05/07 11:03:47;;;;;;;4.22;2.97;;;;;;;;;;4952816;29;20054;-82
2022/05/07 11:06:13;;;;;;;5.35;3.78;;;;;;;;;;4954959;29;20167;-81
2022/05/07 11:08:49;;;;;;;4.70;3.60;;;;;;;;;;4955597;28;20535;-81
2022/05/07 11:11:16;;;;;;;7.90;3.60;;;;;;;;;;4958032;29;20031;-81
2022/05/07 11:13:47;;;;;;;7.07;3.50;;;;;;;;;;4957807;29;20031;-80
2022/05/07 11:16:13;;;;;;;6.03;3.25;;;;;;;;;;4957363;29;20039;-81
2022/05/07 11:18:41;;;;;;;9.63;3.50;;;;;;;;;;4959155;29;20023;-81
2022/05/07 11:21:08;;;;;;;4.82;3.67;;;;;;;;;;4942841;28;20036;-81
2022/05/07 11:23:39;;;;;;;5.40;3.80;;;;;;;;;;4957673;28;20019;-81
2022/05/07 11:26:30;;;;;;;9.75;4.50;;;;;;;;;;4958701;28;20027;-81
2022/05/07 11:28:56;;;;;;;10.48;5.45;;;;;;;;;;4953190;29;20478;-81
2022/05/07 11:31:24;;;;;;;9.05;5.57;;;;;;;;;;4956193;29;20078;-82
2022/05/07 11:34:10;;;;;;;8.00;4.75;;;;;;;;;;4955750;29;20027;-81
2022/05/07 11:36:36;;;;;;;8.80;5.22;;;;;;;;;;4955719;29;20027;-86
2022/05/07 11:39:04;;;;;;;28.42;5.50;;;;;;;;;;4955443;29;20070;-85
2022/05/07 11:41:30;;;;;;;7.03;4.03;;;;;;;;;;4957219;29;20063;-84
2022/05/07 11:47:06;;;;;;;26.60;4.95;;;;;;;;;;4957069;29;20090;-83
2022/05/07 11:49:35;;;;;;;8.23;4.35;;;;;;;;;;4951841;29;20062;-82
2022/05/07 11:52:08;;;;;;;10.82;4.40;;;;;;;;;;4956269;29;20046;-82
2022/05/07 11:54:34;;;;;;;7.13;4.75;;;;;;;;;;4956317;29;20062;-83
2022/05/07 11:56:59;;;;;;;8.02;4.30;;;;;;;;;;4958253;29;20031;-82
2022/05/07 11:59:26;;;;;;;7.82;4.68;;;;;;;;;;4957722;29;20042;-85
2022/05/07 12:01:51;;;;;;;6.40;4.00;;;;;;;;;;4957958;29;20489;-84
2022/05/07 12:04:16;;;;;;;12.77;4.68;;;;;;;;;;4956224;29;20079;-85
2022/05/07 12:06:42;;;;;;;8.15;4.60;;;;;;;;;;4956645;28;20394;-83
2022/05/07 12:09:15;;;;;;;13.32;4.45;;;;;;;;;;4939541;29;20035;-83
2022/05/07 12:11:42;;;;;;;6.10;4.00;;;;;;;;;;4957162;29;20023;-85
2022/05/07 12:14:10;;;;;;;9.63;3.88;;;;;;;;;;4955603;29;20134;-80
2022/05/07 12:19:27;;;;;;;10.82;4.22;;;;;;;;;;4955181;29;20042;-81
2022/05/07 12:30:05;;;;;;;9.05;4.72;;;;;;;;;;4955824;29;20104;-83
2022/05/07 12:32:30;;;;;;;7.57;5.07;;;;;;;;;;4955480;29;20043;-81
2022/05/07 12:34:55;;;;;;;12.93;5.20;;;;;;;;;;4960406;29;20043;-80
2022/05/07 12:37:21;;;;;;;11.32;4.93;;;;;;;;;;4943748;29;20035;-81
2022/05/07 12:39:46;;;;;;;10.65;5.15;;;;;;;;;;4958383;29;20063;-82
2022/05/07 12:42:12;;;;;;;8.35;4.65;;;;;;;;;;4963402;29;20027;-83
2022/05/07 12:44:41;;;;;;;9.13;4.65;;;;;;;;;;4966122;29;20035;-82
2022/05/07 12:47:07;;;;;;;8.88;4.65;;;;;;;;;;4955650;29;20482;-81
2022/05/07 12:49:32;;;;;;;7.72;5.30;;;;;;;;;;4956812;29;20097;-82
2022/05/07 12:51:58;;;;;;;13.68;6.43;;;;;;;;;;4956208;29;20054;-81
2022/05/07 12:54:23;;;;;;;7.72;5.47;;;;;;;;;;4938127;29;20378;-82
2022/05/07 12:56:49;;;;;;;10.55;5.80;;;;;;;;;;4954996;29;20027;-78
2022/05/07 12:59:14;;;;;;;9.80;4.85;;;;;;;;;;4957638;29;20141;-78
2022/05/07 13:01:40;;;;;;;8.57;5.07;;;;;;;;;;4960060;29;20539;-80
2022/05/07 13:04:05;;;;;;;9.32;5.45;;;;;;;;;;4970421;28;20038;-81
2022/05/07 13:06:31;;;;;;;7.85;5.25;;;;;;;;;;4954966;28;20038;-79
2022/05/07 13:08:59;;;;;;;7.80;5.35;;;;;;;;;;4954781;29;20344;-82
2022/05/07 13:11:24;;;;;;;10.45;5.53;;;;;;;;;;4953631;29;20023;-81
2022/05/07 13:13:50;;;;;;;9.27;4.97;;;;;;;;;;4953232;29;20035;-83
2022/05/07 13:16:16;;;;;;;8.25;4.78;;;;;;;;;;4955251;29;20058;-82
2022/05/07 13:18:41;;;;;;;7.38;4.45;;;;;;;;;;4953647;29;20078;-82
2022/05/07 13:21:07;;;;;;;7.07;4.32;;;;;;;;;;4953372;29;20431;-82
2022/05/07 13:23:33;;;;;;;6.43;4.38;;;;;;;;;;4953215;29;20039;-83
2022/05/07 13:25:58;;;;;;;5.80;4.20;;;;;;;;;;4954732;29;20038;-82
2022/05/07 13:28:23;;;;;;;6.40;4.50;;;;;;;;;;4953441;29;20059;-81
2022/05/07 13:30:49;;;;;;;7.30;4.43;;;;;;;;;;4953104;29;20023;-81
2022/05/07 13:33:15;;;;;;;7.70;4.30;;;;;;;;;;4953629;28;20453;-81
2022/05/07 13:35:40;;;;;;;7.72;4.00;;;;;;;;;;4937311;29;20089;-81
2022/05/07 13:38:06;;;;;;;5.60;3.60;;;;;;;;;;4954248;29;20028;-82
2022/05/07 13:40:32;;;;;;;4.57;3.80;;;;;;;;;;4952885;29;20023;-81
2022/05/07 13:42:57;;;;;;;5.40;3.75;;;;;;;;;;4954447;29;20058;-81
2022/05/07 13:45:23;;;;;;;5.88;3.47;;;;;;;;;;4954455;29;20046;-82
2022/05/07 13:47:48;;;;;;;4.28;3.00;;;;;;;;;;4954588;29;20031;-82
2022/05/07 13:50:14;;;;;;;4.95;3.17;;;;;;;;;;4952733;29;20121;-82
2022/05/07 13:52:44;;;;;;;4.95;3.10;;;;;;;;;;4954239;29;20115;-83
2022/05/07 13:55:12;;;;;;;5.97;3.17;;;;;;;;;;4953248;28;20110;-82
2022/05/07 13:57:37;;;;;;;7.65;3.72;;;;;;;;;;4952798;28;20027;-82
2022/05/07 14:00:05;;;;;;;4.38;3.08;;;;;;;;;;4936737;28;20383;-83
2022/05/07 14:02:34;;;;;;;5.38;3.30;;;;;;;;;;4952409;29;20054;-82
2022/05/07 14:05:00;;;;;;;4.72;2.80;;;;;;;;;;4953459;28;20031;-82
2022/05/07 14:07:27;;;;;;;4.65;3.00;;;;;;;;;;4952947;29;20098;-82
2022/05/07 14:09:52;;;;;;;4.85;2.92;;;;;;;;;;4954279;29;20041;-82
2022/05/07 14:12:18;;;;;;;5.10;3.00;;;;;;;;;;4936709;29;20102;-81
2022/05/07 14:14:45;;;;;;;4.43;3.10;;;;;;;;;;4936391;29;20034;-82
2022/05/07 14:17:11;;;;;;;4.43;3.10;;;;;;;;;;4952738;29;20066;-81
2022/05/07 14:19:37;;;;;;;3.88;2.95;;;;;;;;;;4938826;29;20105;-81
2022/05/07 14:22:03;;;;;;;5.90;3.20;;;;;;;;;;4941942;29;20108;-81
2022/05/07 14:24:29;;;;;;;5.25;3.13;;;;;;;;;;4953705;29;20031;-82
2022/05/07 14:26:55;;;;;;;4.13;3.58;;;;;;;;;;4937068;29;20106;-82
2022/05/07 14:29:20;;;;;;;5.40;3.72;;;;;;;;;;4953136;29;20059;-82
2022/05/07 14:31:45;;;;;;;9.60;3.90;;;;;;;;;;4936698;29;20039;-82
2022/05/07 14:34:11;;;;;;;3.78;3.28;;;;;;;;;;4954671;29;20066;-81
2022/05/07 14:36:37;;;;;;;9.25;3.70;;;;;;;;;;4937068;29;20055;-82
2022/05/07 14:39:03;;;;;;;4.55;3.10;;;;;;;;;;4936964;29;20038;-83
2022/05/07 14:41:30;;;;;;;6.10;3.42;;;;;;;;;;4954385;29;20485;-83
2022/05/07 14:43:55;;;;;;;5.10;3.03;;;;;;;;;;4955399;28;20058;-82
2022/05/07 14:46:21;;;;;;;12.88;3.88;;;;;;;;;;4958020;29;20043;-82
2022/05/07 14:48:49;;;;;;;4.50;3.25;;;;;;;;;;4942230;29;20046;-83
2022/05/07 14:51:14;;;;;;;4.32;3.17;;;;;;;;;;4958053;29;20027;-82
2022/05/07 14:53:40;;;;;;;4.35;2.90;;;;;;;;;;4940843;29;20034;-81
2022/05/07 14:56:05;;;;;;;6.22;3.05;;;;;;;;;;4940557;29;20031;-82
2022/05/07 14:58:30;;;;;;;6.70;3.10;;;;;;;;;;4940778;29;20446;-81
2022/05/07 15:00:56;;;;;;;2.95;2.53;;;;;;;;;;4956593;29;20411;-81
2022/05/07 15:03:21;;;;;;;3.13;2.60;;;;;;;;;;4970298;28;20072;-81
2022/05/07 15:05:47;;;;;;;5.13;2.78;;;;;;;;;;4956901;28;20509;-80
2022/05/07 15:10:56;;;;;;;2.45;2.20;;;;;;;;;;4958409;29;20034;-81
2022/05/07 15:13:22;;;;;;;2.30;2.10;;;;;;;;;;4959096;29;20031;-81
2022/05/07 15:15:49;;;;;;;3.72;2.60;;;;;;;;;;4940919;29;20055;-82
2022/05/07 15:18:14;;;;;;;2.45;2.10;;;;;;;;;;4957624;29;20082;-82
2022/05/07 15:20:40;;;;;;;2.22;1.88;;;;;;;;;;4972103;28;20035;-82
2022/05/07 15:23:05;;;;;;;7.72;2.35;;;;;;;;;;4941505;29;20048;-83
2022/05/07 15:25:31;;;;;;;5.18;2.40;;;;;;;;;;4960478;29;20034;-83